Wetterdaten: Woche 01.07.24 - 07.07.24 (KW27)
Datum Zeit Temp. I. Temp. A. Feuchte I. Feuchte A. Luftdruck Regen Wind Richtung Sonnenschein Solar Taupunkt Windchill Windböen
01.07.2024 00:00 24,2 °C 18,0 °C 64 % 89 % 1011,5 hPa 1,8 l/m² 3,1 km/h (1 Bft) SW 0,00 h 0 W/m² 16,2 °C 18,0 °C 5,0 km/h (1 Bft)
01.07.2024 01:00 24,2 °C 17,3 °C 64 % 90 % 1011,8 hPa 0,0 l/m² 0,5 km/h (0 Bft) SW 0,00 h 0 W/m² 15,7 °C 17,3 °C 1,6 km/h (1 Bft)
01.07.2024 02:00 24,2 °C 17,0 °C 64 % 91 % 1011,7 hPa 0,0 l/m² 0,5 km/h (0 Bft) SW 0,00 h 0 W/m² 15,6 °C 17,0 °C 1,1 km/h (0 Bft)
01.07.2024 03:00 24,2 °C 16,6 °C 64 % 92 % 1011,7 hPa 0,0 l/m² 0,0 km/h (0 Bft) W-SW 0,00 h 0 W/m² 15,2 °C 16,6 °C 0,0 km/h (0 Bft)
01.07.2024 04:00 24,2 °C 16,2 °C 64 % 92 % 1011,6 hPa 0,0 l/m² 0,0 km/h (0 Bft) W-SW 0,00 h 0 W/m² 14,9 °C 16,2 °C 0,0 km/h (0 Bft)
01.07.2024 05:00 24,1 °C 16,2 °C 64 % 93 % 1011,4 hPa 0,0 l/m² 0,0 km/h (0 Bft) W-SW 0,00 h 23 W/m² 15,0 °C 16,2 °C 0,0 km/h (0 Bft)
01.07.2024 06:00 24,1 °C 16,7 °C 64 % 94 % 1011,3 hPa 0,0 l/m² 0,0 km/h (0 Bft) SW 0,35 h 47 W/m² 15,7 °C 16,7 °C 0,0 km/h (0 Bft)
01.07.2024 07:00 24,1 °C 17,2 °C 64 % 94 % 1011,1 hPa 0,0 l/m² 0,1 km/h (0 Bft) S-SW 0,77 h 65 W/m² 16,2 °C 17,2 °C 0,2 km/h (0 Bft)
01.07.2024 08:00 24,0 °C 17,4 °C 64 % 93 % 1011,2 hPa 0,2 l/m² 7,3 km/h (2 Bft) S-SW 0,93 h 89 W/m² 16,3 °C 16,5 °C 11,3 km/h (2 Bft)
01.07.2024 09:00 24,0 °C 17,9 °C 64 % 93 % 1011,2 hPa 1,2 l/m² 9,0 km/h (2 Bft) S-SW 0,77 h 327 W/m² 16,7 °C 16,7 °C 13,3 km/h (3 Bft)
01.07.2024 10:00 24,1 °C 19,9 °C 64 % 85 % 1011,0 hPa 0,0 l/m² 12,8 km/h (3 Bft) SW 0,98 h 536 W/m² 17,4 °C 17,8 °C 19,3 km/h (3 Bft)
01.07.2024 11:00 24,1 °C 19,5 °C 63 % 82 % 1010,8 hPa 0,0 l/m² 13,3 km/h (3 Bft) S-SW 1,00 h 238 W/m² 16,3 °C 17,2 °C 18,2 km/h (3 Bft)
01.07.2024 12:00 24,0 °C 17,3 °C 64 % 88 % 1011,2 hPa 1,0 l/m² 8,4 km/h (2 Bft) S-SW 0,30 h 57 W/m² 15,2 °C 16,2 °C 12,3 km/h (2 Bft)
01.07.2024 13:00 24,0 °C 16,6 °C 64 % 92 % 1011,7 hPa 0,4 l/m² 4,4 km/h (1 Bft) S-SW 0,95 h 185 W/m² 15,4 °C 16,4 °C 8,9 km/h (2 Bft)
01.07.2024 14:00 23,9 °C 18,0 °C 64 % 88 % 1011,5 hPa 0,0 l/m² 3,9 km/h (1 Bft) W-NW 1,00 h 462 W/m² 15,9 °C 17,9 °C 8,2 km/h (2 Bft)
01.07.2024 15:00 23,9 °C 16,6 °C 64 % 87 % 1011,6 hPa 1,2 l/m² 4,6 km/h (1 Bft) W 0,87 h 230 W/m² 14,5 °C 16,2 °C 9,5 km/h (2 Bft)
01.07.2024 16:00 23,9 °C 18,4 °C 63 % 82 % 1011,4 hPa 0,0 l/m² 7,3 km/h (2 Bft) W 1,00 h 388 W/m² 15,2 °C 17,6 °C 13,4 km/h (3 Bft)
01.07.2024 17:00 23,9 °C 17,6 °C 63 % 77 % 1011,5 hPa 0,0 l/m² 10,4 km/h (2 Bft) W-SW 1,00 h 181 W/m² 13,6 °C 16,0 °C 17,5 km/h (3 Bft)
01.07.2024 18:00 23,9 °C 16,7 °C 63 % 80 % 1012,0 hPa 0,0 l/m² 8,1 km/h (2 Bft) W-SW 1,00 h 121 W/m² 13,2 °C 15,8 °C 14,1 km/h (3 Bft)
01.07.2024 19:00 23,9 °C 17,7 °C 63 % 72 % 1012,2 hPa 0,0 l/m² 10,0 km/h (2 Bft) W 0,92 h 114 W/m² 12,6 °C 16,1 °C 17,0 km/h (3 Bft)
01.07.2024 20:00 23,8 °C 16,3 °C 63 % 76 % 1012,8 hPa 0,0 l/m² 6,9 km/h (2 Bft) W 0,07 h 32 W/m² 12,1 °C 15,8 °C 13,3 km/h (3 Bft)
01.07.2024 21:00 23,8 °C 14,6 °C 63 % 83 % 1013,5 hPa 0,0 l/m² 1,9 km/h (1 Bft) W 0,00 h 8 W/m² 11,7 °C 14,6 °C 4,3 km/h (1 Bft)
01.07.2024 22:00 23,8 °C 13,9 °C 63 % 87 % 1013,8 hPa 0,0 l/m² 2,7 km/h (1 Bft) W 0,00 h 0 W/m² 11,9 °C 13,9 °C 5,5 km/h (2 Bft)
01.07.2024 23:00 23,7 °C 14,2 °C 63 % 85 % 1014,3 hPa 0,0 l/m² 4,0 km/h (1 Bft) W-SW 0,00 h 0 W/m² 11,8 °C 14,2 °C 8,7 km/h (2 Bft)
02.07.2024 00:00 23,7 °C 13,6 °C 63 % 90 % 1014,4 hPa 0,2 l/m² 3,7 km/h (1 Bft) W-SW 0,00 h 0 W/m² 12,0 °C 13,6 °C 5,6 km/h (2 Bft)
02.07.2024 01:00 23,7 °C 13,3 °C 63 % 92 % 1014,3 hPa 0,0 l/m² 2,7 km/h (1 Bft) W-SW 0,00 h 0 W/m² 12,1 °C 13,3 °C 4,3 km/h (1 Bft)
02.07.2024 02:00 23,7 °C 13,2 °C 63 % 93 % 1014,2 hPa 0,0 l/m² 0,3 km/h (0 Bft) W-SW 0,00 h 0 W/m² 12,0 °C 13,2 °C 0,9 km/h (0 Bft)
02.07.2024 03:00 23,6 °C 13,1 °C 63 % 93 % 1014,1 hPa 0,0 l/m² 1,6 km/h (1 Bft) W-SW 0,00 h 0 W/m² 12,0 °C 13,1 °C 2,6 km/h (1 Bft)
02.07.2024 04:00 23,6 °C 13,0 °C 63 % 94 % 1013,9 hPa 0,0 l/m² 3,0 km/h (1 Bft) W-SW 0,00 h 0 W/m² 12,0 °C 13,0 °C 5,1 km/h (1 Bft)
02.07.2024 05:00 23,5 °C 13,2 °C 63 % 94 % 1014,0 hPa 0,0 l/m² 3,6 km/h (1 Bft) SW 0,00 h 10 W/m² 12,2 °C 13,2 °C 6,0 km/h (2 Bft)
02.07.2024 06:00 23,4 °C 13,4 °C 63 % 93 % 1013,9 hPa 0,0 l/m² 6,0 km/h (2 Bft) SW 0,42 h 53 W/m² 12,3 °C 13,1 °C 9,9 km/h (2 Bft)
02.07.2024 07:00 23,4 °C 14,4 °C 63 % 89 % 1013,7 hPa 0,0 l/m² 7,5 km/h (2 Bft) S-SW 1,00 h 143 W/m² 12,7 °C 13,7 °C 11,3 km/h (2 Bft)
02.07.2024 08:00 23,4 °C 15,3 °C 62 % 84 % 1013,4 hPa 0,0 l/m² 10,6 km/h (2 Bft) SW 1,00 h 152 W/m² 12,6 °C 13,3 °C 16,7 km/h (3 Bft)
02.07.2024 09:00 23,3 °C 15,4 °C 62 % 83 % 1013,4 hPa 0,0 l/m² 9,3 km/h (2 Bft) SW 1,00 h 88 W/m² 12,4 °C 13,9 °C 14,7 km/h (3 Bft)
02.07.2024 10:00 23,3 °C 15,2 °C 62 % 86 % 1013,2 hPa 0,0 l/m² 8,9 km/h (2 Bft) SW 0,98 h 157 W/m² 13,0 °C 14,0 °C 13,3 km/h (3 Bft)
02.07.2024 11:00 23,3 °C 15,9 °C 62 % 85 % 1012,9 hPa 0,0 l/m² 11,3 km/h (2 Bft) S-SW 1,00 h 174 W/m² 13,3 °C 13,7 °C 16,5 km/h (3 Bft)
02.07.2024 12:00 23,2 °C 16,2 °C 62 % 81 % 1012,6 hPa 0,0 l/m² 10,8 km/h (2 Bft) S-SW 1,02 h 126 W/m² 13,0 °C 14,2 °C 15,0 km/h (3 Bft)
02.07.2024 13:00 23,2 °C 16,9 °C 62 % 79 % 1012,0 hPa 0,0 l/m² 9,6 km/h (2 Bft) SW 1,00 h 141 W/m² 13,3 °C 15,4 °C 13,5 km/h (3 Bft)
02.07.2024 14:00 23,2 °C 17,5 °C 62 % 77 % 1011,7 hPa 0,0 l/m² 11,2 km/h (2 Bft) W-SW 1,00 h 122 W/m² 13,4 °C 15,5 °C 16,2 km/h (3 Bft)
02.07.2024 15:00 23,2 °C 18,6 °C 62 % 72 % 1011,3 hPa 0,0 l/m² 15,3 km/h (3 Bft) W-SW 1,00 h 286 W/m² 13,5 °C 15,5 °C 21,2 km/h (4 Bft)
02.07.2024 16:00 23,1 °C 18,8 °C 62 % 71 % 1011,0 hPa 0,0 l/m² 17,9 km/h (3 Bft) SW 1,00 h 228 W/m² 13,5 °C 15,2 °C 25,0 km/h (4 Bft)
02.07.2024 17:00 23,1 °C 17,9 °C 62 % 75 % 1010,9 hPa 0,0 l/m² 13,8 km/h (3 Bft) W-SW 1,00 h 109 W/m² 13,4 °C 15,2 °C 19,5 km/h (3 Bft)
02.07.2024 18:00 23,1 °C 17,8 °C 62 % 76 % 1010,7 hPa 0,0 l/m² 14,4 km/h (3 Bft) W-SW 1,00 h 108 W/m² 13,5 °C 14,8 °C 20,2 km/h (4 Bft)
02.07.2024 19:00 23,1 °C 17,0 °C 62 % 80 % 1010,5 hPa 0,0 l/m² 11,9 km/h (2 Bft) SW 0,57 h 54 W/m² 13,5 °C 14,7 °C 17,0 km/h (3 Bft)
02.07.2024 20:00 23,1 °C 16,1 °C 62 % 85 % 1010,7 hPa 0,4 l/m² 8,0 km/h (2 Bft) W-SW 0,00 h 13 W/m² 13,6 °C 15,0 °C 13,5 km/h (3 Bft)
02.07.2024 21:00 23,0 °C 14,5 °C 62 % 92 % 1010,9 hPa 0,8 l/m² 2,8 km/h (1 Bft) W 0,00 h 5 W/m² 13,3 °C 14,5 °C 6,0 km/h (2 Bft)
02.07.2024 22:00 23,0 °C 14,1 °C 62 % 93 % 1011,2 hPa 0,2 l/m² 0,6 km/h (0 Bft) W 0,00 h 0 W/m² 13,0 °C 14,1 °C 1,8 km/h (1 Bft)
02.07.2024 23:00 22,9 °C 13,8 °C 62 % 94 % 1011,2 hPa 0,0 l/m² 3,4 km/h (1 Bft) W 0,00 h 0 W/m² 12,8 °C 13,7 °C 7,6 km/h (2 Bft)
03.07.2024 00:00 22,9 °C 12,9 °C 62 % 92 % 1011,3 hPa 0,0 l/m² 6,6 km/h (2 Bft) W 0,00 h 0 W/m² 11,5 °C 12,3 °C 14,0 km/h (3 Bft)
03.07.2024 01:00 22,9 °C 12,1 °C 62 % 91 % 1011,1 hPa 0,0 l/m² 4,8 km/h (1 Bft) W 0,00 h 0 W/m² 10,6 °C 11,8 °C 11,2 km/h (2 Bft)
03.07.2024 02:00 22,8 °C 11,4 °C 62 % 90 % 1010,9 hPa 0,0 l/m² 1,6 km/h (1 Bft) W-SW 0,00 h 0 W/m² 9,9 °C 11,4 °C 3,7 km/h (1 Bft)
03.07.2024 03:00 22,8 °C 10,7 °C 62 % 91 % 1011,0 hPa 0,0 l/m² 2,4 km/h (1 Bft) W-SW 0,00 h 0 W/m² 9,3 °C 10,7 °C 4,2 km/h (1 Bft)
03.07.2024 04:00 22,8 °C 10,7 °C 62 % 92 % 1010,9 hPa 0,0 l/m² 0,2 km/h (0 Bft) W-SW 0,00 h 0 W/m² 9,4 °C 10,7 °C 0,9 km/h (0 Bft)
03.07.2024 05:00 22,7 °C 10,8 °C 62 % 92 % 1011,2 hPa 0,0 l/m² 0,0 km/h (0 Bft) W-SW 0,00 h 19 W/m² 9,6 °C 10,8 °C 0,1 km/h (0 Bft)
03.07.2024 06:00 22,7 °C 11,6 °C 61 % 93 % 1011,2 hPa 0,0 l/m² 1,8 km/h (1 Bft) SW 0,50 h 52 W/m² 10,5 °C 11,6 °C 3,2 km/h (1 Bft)
03.07.2024 07:00 22,6 °C 12,4 °C 61 % 93 % 1011,1 hPa 0,0 l/m² 3,3 km/h (1 Bft) SW 1,00 h 106 W/m² 11,3 °C 12,4 °C 5,4 km/h (2 Bft)
03.07.2024 08:00 22,6 °C 13,7 °C 61 % 91 % 1011,0 hPa 0,0 l/m² 5,2 km/h (1 Bft) SW 1,00 h 247 W/m² 12,3 °C 13,5 °C 8,1 km/h (2 Bft)
03.07.2024 09:00 22,6 °C 15,5 °C 61 % 81 % 1010,9 hPa 0,0 l/m² 6,5 km/h (2 Bft) SW 1,00 h 350 W/m² 12,2 °C 14,9 °C 10,4 km/h (2 Bft)
03.07.2024 10:00 22,6 °C 16,9 °C 61 % 73 % 1010,4 hPa 0,0 l/m² 9,1 km/h (2 Bft) S-SW 1,00 h 387 W/m² 12,1 °C 15,6 °C 13,2 km/h (3 Bft)
03.07.2024 11:00 22,6 °C 17,7 °C 61 % 68 % 1009,9 hPa 0,0 l/m² 10,3 km/h (2 Bft) SW 1,00 h 355 W/m² 11,8 °C 16,0 °C 14,9 km/h (3 Bft)
03.07.2024 12:00 22,5 °C 17,7 °C 61 % 66 % 1009,6 hPa 0,0 l/m² 12,7 km/h (3 Bft) S-SW 1,00 h 445 W/m² 11,2 °C 15,3 °C 17,7 km/h (3 Bft)
03.07.2024 13:00 22,4 °C 18,5 °C 61 % 60 % 1009,4 hPa 0,0 l/m² 11,9 km/h (2 Bft) SW 1,00 h 367 W/m² 10,6 °C 16,5 °C 16,6 km/h (3 Bft)
03.07.2024 14:00 22,4 °C 18,1 °C 61 % 62 % 1009,2 hPa 0,0 l/m² 12,1 km/h (2 Bft) SW 1,00 h 305 W/m² 10,7 °C 15,8 °C 16,5 km/h (3 Bft)
03.07.2024 15:00 22,4 °C 18,9 °C 61 % 60 % 1008,8 hPa 0,0 l/m² 10,2 km/h (2 Bft) SW 1,00 h 457 W/m² 11,0 °C 17,4 °C 14,9 km/h (3 Bft)
03.07.2024 16:00 22,4 °C 18,5 °C 60 % 61 % 1008,6 hPa 0,0 l/m² 9,8 km/h (2 Bft) SW 1,00 h 161 W/m² 10,9 °C 17,1 °C 14,5 km/h (3 Bft)
03.07.2024 17:00 22,4 °C 16,7 °C 60 % 68 % 1008,2 hPa 0,0 l/m² 6,3 km/h (2 Bft) W-SW 1,00 h 109 W/m² 10,6 °C 15,9 °C 9,7 km/h (2 Bft)
03.07.2024 18:00 22,4 °C 17,0 °C 60 % 67 % 1007,9 hPa 0,0 l/m² 6,0 km/h (2 Bft) S 1,00 h 146 W/m² 10,8 °C 16,8 °C 8,4 km/h (2 Bft)
03.07.2024 19:00 22,4 °C 17,1 °C 60 % 65 % 1007,9 hPa 0,0 l/m² 7,0 km/h (2 Bft) S-SW 1,00 h 118 W/m² 10,6 °C 16,6 °C 9,9 km/h (2 Bft)
03.07.2024 20:00 22,4 °C 16,3 °C 60 % 70 % 1008,1 hPa 0,0 l/m² 3,6 km/h (1 Bft) S-SW 0,12 h 38 W/m² 10,8 °C 16,3 °C 5,2 km/h (1 Bft)
03.07.2024 21:00 22,3 °C 15,5 °C 60 % 75 % 1008,4 hPa 0,0 l/m² 5,7 km/h (2 Bft) S-SW 0,00 h 6 W/m² 11,1 °C 15,2 °C 8,2 km/h (2 Bft)
03.07.2024 22:00 22,3 °C 15,0 °C 61 % 78 % 1008,9 hPa 0,0 l/m² 4,5 km/h (1 Bft) W-SW 0,00 h 0 W/m² 11,3 °C 14,9 °C 6,7 km/h (2 Bft)
03.07.2024 23:00 22,2 °C 14,4 °C 61 % 81 % 1008,9 hPa 0,0 l/m² 4,1 km/h (1 Bft) W 0,00 h 0 W/m² 11,2 °C 14,4 °C 6,3 km/h (2 Bft)
04.07.2024 00:00 22,1 °C 13,9 °C 61 % 83 % 1008,8 hPa 0,0 l/m² 4,0 km/h (1 Bft) W 0,00 h 0 W/m² 11,0 °C 13,8 °C 6,2 km/h (2 Bft)
04.07.2024 01:00 22,1 °C 13,6 °C 61 % 85 % 1008,8 hPa 0,0 l/m² 3,5 km/h (1 Bft) W 0,00 h 0 W/m² 11,1 °C 13,6 °C 5,4 km/h (1 Bft)
04.07.2024 02:00 22,0 °C 13,2 °C 61 % 85 % 1008,6 hPa 0,0 l/m² 3,4 km/h (1 Bft) W 0,00 h 0 W/m² 10,8 °C 13,2 °C 5,5 km/h (2 Bft)
04.07.2024 03:00 21,9 °C 12,5 °C 61 % 86 % 1008,2 hPa 0,0 l/m² 6,1 km/h (2 Bft) W 0,00 h 0 W/m² 10,2 °C 12,2 °C 9,5 km/h (2 Bft)
04.07.2024 04:00 21,9 °C 11,5 °C 61 % 86 % 1008,0 hPa 0,0 l/m² 2,6 km/h (1 Bft) S-SW 0,00 h 0 W/m² 9,3 °C 11,5 °C 4,4 km/h (1 Bft)
04.07.2024 05:00 21,9 °C 10,7 °C 61 % 88 % 1007,9 hPa 0,0 l/m² 1,2 km/h (1 Bft) S-SO 0,00 h 20 W/m² 8,8 °C 10,7 °C 2,8 km/h (1 Bft)
04.07.2024 06:00 21,8 °C 11,4 °C 61 % 90 % 1007,6 hPa 0,0 l/m² 4,6 km/h (1 Bft) S-SO 0,23 h 39 W/m² 9,9 °C 11,4 °C 7,4 km/h (2 Bft)
04.07.2024 07:00 21,8 °C 12,8 °C 61 % 88 % 1007,3 hPa 0,0 l/m² 9,8 km/h (2 Bft) S-SO 1,00 h 107 W/m² 10,8 °C 10,8 °C 14,4 km/h (3 Bft)
04.07.2024 08:00 21,7 °C 14,9 °C 61 % 80 % 1006,8 hPa 0,0 l/m² 13,0 km/h (3 Bft) S 0,98 h 235 W/m² 11,5 °C 11,9 °C 19,3 km/h (3 Bft)
04.07.2024 09:00 21,9 °C 16,5 °C 61 % 74 % 1006,6 hPa 0,0 l/m² 14,1 km/h (3 Bft) S 0,90 h 178 W/m² 11,8 °C 13,4 °C 20,7 km/h (4 Bft)
04.07.2024 10:00 21,9 °C 16,8 °C 61 % 75 % 1006,3 hPa 0,0 l/m² 12,4 km/h (2 Bft) S 1,00 h 163 W/m² 12,3 °C 14,4 °C 18,0 km/h (3 Bft)
04.07.2024 11:00 21,8 °C 17,3 °C 61 % 75 % 1006,3 hPa 0,0 l/m² 14,9 km/h (3 Bft) S-SW 1,00 h 130 W/m² 12,8 °C 14,0 °C 21,0 km/h (4 Bft)
04.07.2024 12:00 21,8 °C 18,2 °C 61 % 75 % 1006,1 hPa 0,0 l/m² 16,2 km/h (3 Bft) SW 1,02 h 266 W/m² 13,8 °C 14,8 °C 24,0 km/h (4 Bft)
04.07.2024 13:00 21,8 °C 20,0 °C 61 % 71 % 1005,7 hPa 0,0 l/m² 18,2 km/h (3 Bft) SW 1,00 h 536 W/m² 14,5 °C 16,6 °C 25,3 km/h (4 Bft)
04.07.2024 14:00 21,8 °C 22,1 °C 61 % 63 % 1005,3 hPa 0,0 l/m² 20,6 km/h (4 Bft) S-SW 1,00 h 372 W/m² 14,6 °C 18,9 °C 29,0 km/h (5 Bft)
04.07.2024 15:00 21,8 °C 17,4 °C 61 % 76 % 1006,5 hPa 3,8 l/m² 7,0 km/h (2 Bft) W-SW 0,55 h 84 W/m² 13,0 °C 16,6 °C 12,3 km/h (2 Bft)
04.07.2024 16:00 21,8 °C 15,1 °C 61 % 88 % 1006,9 hPa 0,4 l/m² 1,5 km/h (1 Bft) W-SW 1,00 h 189 W/m² 13,1 °C 15,1 °C 2,7 km/h (1 Bft)
04.07.2024 17:00 21,8 °C 16,6 °C 61 % 90 % 1007,3 hPa 0,0 l/m² 7,8 km/h (2 Bft) S-SW 1,00 h 342 W/m² 15,0 °C 15,7 °C 10,7 km/h (2 Bft)
04.07.2024 18:00 21,8 °C 18,5 °C 61 % 81 % 1007,1 hPa 0,0 l/m² 11,9 km/h (2 Bft) S-SW 1,00 h 335 W/m² 15,2 °C 16,5 °C 16,4 km/h (3 Bft)
04.07.2024 19:00 21,8 °C 18,7 °C 61 % 72 % 1007,6 hPa 0,0 l/m² 13,5 km/h (3 Bft) W-SW 0,52 h 51 W/m² 13,6 °C 16,1 °C 19,0 km/h (3 Bft)
04.07.2024 20:00 21,8 °C 18,1 °C 61 % 73 % 1008,4 hPa 0,0 l/m² 3,2 km/h (1 Bft) W 0,00 h 27 W/m² 13,2 °C 17,9 °C 5,8 km/h (2 Bft)
04.07.2024 21:00 21,8 °C 16,3 °C 61 % 77 % 1009,3 hPa 0,0 l/m² 0,0 km/h (0 Bft) W 0,00 h 9 W/m² 12,3 °C 16,3 °C 0,0 km/h (0 Bft)
04.07.2024 22:00 21,8 °C 13,7 °C 61 % 82 % 1009,9 hPa 0,0 l/m² 0,0 km/h (0 Bft) W 0,00 h 0 W/m² 10,7 °C 13,7 °C 0,0 km/h (0 Bft)
04.07.2024 23:00 21,8 °C 12,0 °C 61 % 85 % 1010,4 hPa 0,0 l/m² 0,0 km/h (0 Bft) N-NW 0,00 h 0 W/m² 9,6 °C 12,0 °C 0,0 km/h (0 Bft)
05.07.2024 00:00 21,8 °C 10,9 °C 61 % 87 % 1010,7 hPa 0,0 l/m² 0,0 km/h (0 Bft) N-NW 0,00 h 0 W/m² 8,8 °C 10,9 °C 0,0 km/h (0 Bft)
05.07.2024 01:00 21,7 °C 10,3 °C 61 % 89 % 1010,9 hPa 0,0 l/m² 0,0 km/h (0 Bft) N-NW 0,00 h 0 W/m² 8,4 °C 10,3 °C 0,0 km/h (0 Bft)
05.07.2024 02:00 21,7 °C 10,1 °C 61 % 90 % 1011,2 hPa 0,0 l/m² 0,0 km/h (0 Bft) N-NW 0,00 h 0 W/m² 8,5 °C 10,1 °C 0,0 km/h (0 Bft)
05.07.2024 03:00 21,7 °C 10,9 °C 61 % 92 % 1011,2 hPa 0,0 l/m² 0,0 km/h (0 Bft) N-NW 0,00 h 0 W/m² 9,6 °C 10,9 °C 0,0 km/h (0 Bft)
05.07.2024 04:00 21,6 °C 11,2 °C 61 % 92 % 1011,1 hPa 0,0 l/m² 0,0 km/h (0 Bft) N-NW 0,00 h 0 W/m² 9,9 °C 11,2 °C 0,0 km/h (0 Bft)
05.07.2024 05:00 21,6 °C 11,2 °C 61 % 92 % 1011,2 hPa 0,0 l/m² 0,0 km/h (0 Bft) N-NW 0,00 h 16 W/m² 10,0 °C 11,2 °C 0,0 km/h (0 Bft)
05.07.2024 06:00 21,5 °C 11,7 °C 61 % 93 % 1011,2 hPa 0,0 l/m² 0,0 km/h (0 Bft) N-NW 0,38 h 51 W/m² 10,6 °C 11,7 °C 0,0 km/h (0 Bft)
05.07.2024 07:00 21,4 °C 12,6 °C 61 % 94 % 1011,2 hPa 0,0 l/m² 0,0 km/h (0 Bft) N-NW 1,00 h 171 W/m² 11,6 °C 12,6 °C 0,0 km/h (0 Bft)
05.07.2024 08:00 21,4 °C 14,8 °C 60 % 90 % 1011,1 hPa 0,0 l/m² 0,0 km/h (0 Bft) NW 1,00 h 315 W/m² 13,2 °C 14,8 °C 0,0 km/h (0 Bft)
05.07.2024 09:00 21,5 °C 17,5 °C 60 % 72 % 1011,3 hPa 0,0 l/m² 14,3 km/h (3 Bft) SW 1,02 h 476 W/m² 12,3 °C 14,5 °C 21,0 km/h (4 Bft)
05.07.2024 10:00 21,5 °C 18,9 °C 60 % 62 % 1011,3 hPa 0,0 l/m² 20,0 km/h (4 Bft) SW 1,00 h 537 W/m² 11,3 °C 14,8 °C 28,7 km/h (5 Bft)
05.07.2024 11:00 21,5 °C 20,4 °C 60 % 54 % 1011,1 hPa 0,0 l/m² 19,5 km/h (3 Bft) SW 1,00 h 830 W/m² 10,6 °C 16,8 °C 28,4 km/h (5 Bft)
05.07.2024 12:00 21,4 °C 21,1 °C 60 % 53 % 1011,4 hPa 0,0 l/m² 17,9 km/h (3 Bft) SW 1,00 h 766 W/m² 11,0 °C 18,0 °C 25,9 km/h (4 Bft)
05.07.2024 13:00 21,4 °C 22,3 °C 60 % 50 % 1011,4 hPa 0,0 l/m² 18,3 km/h (3 Bft) SW 1,00 h 744 W/m² 11,4 °C 19,5 °C 25,3 km/h (4 Bft)
05.07.2024 14:00 21,4 °C 21,1 °C 60 % 53 % 1011,4 hPa 0,0 l/m² 15,8 km/h (3 Bft) SW 1,00 h 354 W/m² 11,1 °C 18,5 °C 23,0 km/h (4 Bft)
05.07.2024 15:00 21,5 °C 21,6 °C 60 % 52 % 1011,1 hPa 0,0 l/m² 17,3 km/h (3 Bft) SW 1,00 h 460 W/m² 11,3 °C 18,8 °C 24,2 km/h (4 Bft)
05.07.2024 16:00 21,5 °C 21,7 °C 60 % 53 % 1010,9 hPa 0,0 l/m² 14,7 km/h (3 Bft) SW 1,00 h 328 W/m² 11,7 °C 19,4 °C 21,9 km/h (4 Bft)
05.07.2024 17:00 21,5 °C 21,2 °C 60 % 55 % 1010,8 hPa 0,0 l/m² 13,3 km/h (3 Bft) SW 1,00 h 214 W/m² 11,8 °C 19,2 °C 19,1 km/h (3 Bft)
05.07.2024 18:00 21,5 °C 20,6 °C 60 % 58 % 1010,6 hPa 0,0 l/m² 11,1 km/h (2 Bft) SW 1,00 h 142 W/m² 12,1 °C 19,1 °C 16,2 km/h (3 Bft)
05.07.2024 19:00 21,6 °C 20,2 °C 60 % 61 % 1010,6 hPa 0,0 l/m² 9,6 km/h (2 Bft) SW 0,80 h 71 W/m² 12,4 °C 19,0 °C 15,0 km/h (3 Bft)
05.07.2024 20:00 21,6 °C 19,5 °C 60 % 66 % 1010,4 hPa 0,0 l/m² 1,2 km/h (1 Bft) W-SW 0,00 h 18 W/m² 12,9 °C 19,5 °C 2,4 km/h (1 Bft)
05.07.2024 21:00 21,6 °C 18,6 °C 60 % 71 % 1010,4 hPa 0,0 l/m² 1,9 km/h (1 Bft) SW 0,00 h 0 W/m² 13,2 °C 18,6 °C 3,1 km/h (1 Bft)
05.07.2024 22:00 21,4 °C 17,8 °C 60 % 75 % 1010,3 hPa 0,0 l/m² 0,1 km/h (0 Bft) S 0,00 h 0 W/m² 13,3 °C 17,8 °C 0,3 km/h (0 Bft)
05.07.2024 23:00 21,4 °C 17,3 °C 61 % 78 % 1010,1 hPa 0,0 l/m² 1,9 km/h (1 Bft) S 0,00 h 0 W/m² 13,5 °C 17,3 °C 3,5 km/h (1 Bft)
06.07.2024 00:00 21,4 °C 17,0 °C 61 % 79 % 1009,7 hPa 0,0 l/m² 1,4 km/h (1 Bft) S-SO 0,00 h 0 W/m² 13,4 °C 17,0 °C 2,7 km/h (1 Bft)
06.07.2024 01:00 21,4 °C 16,4 °C 61 % 80 % 1009,4 hPa 0,0 l/m² 0,5 km/h (0 Bft) O-NO 0,00 h 0 W/m² 12,8 °C 16,4 °C 0,7 km/h (0 Bft)
06.07.2024 02:00 21,4 °C 14,6 °C 60 % 83 % 1009,0 hPa 0,0 l/m² 1,2 km/h (1 Bft) O-NO 0,00 h 0 W/m² 11,8 °C 14,6 °C 2,3 km/h (1 Bft)
06.07.2024 03:00 21,4 °C 13,8 °C 60 % 87 % 1008,7 hPa 0,0 l/m² 1,1 km/h (0 Bft) NO 0,00 h 0 W/m² 11,6 °C 13,8 °C 2,2 km/h (1 Bft)
06.07.2024 04:00 21,4 °C 13,5 °C 60 % 89 % 1008,4 hPa 0,0 l/m² 0,9 km/h (0 Bft) NO 0,00 h 0 W/m² 11,6 °C 13,5 °C 2,3 km/h (1 Bft)
06.07.2024 05:00 21,4 °C 13,1 °C 60 % 89 % 1007,8 hPa 0,0 l/m² 0,9 km/h (0 Bft) NO 0,00 h 15 W/m² 11,4 °C 13,1 °C 2,0 km/h (1 Bft)
06.07.2024 06:00 21,3 °C 14,3 °C 60 % 91 % 1007,4 hPa 0,0 l/m² 2,3 km/h (1 Bft) NO 0,92 h 122 W/m² 12,9 °C 14,3 °C 4,1 km/h (1 Bft)
06.07.2024 07:00 21,3 °C 16,6 °C 61 % 87 % 1006,9 hPa 0,0 l/m² 2,7 km/h (1 Bft) NO 1,00 h 137 W/m² 14,4 °C 16,6 °C 4,8 km/h (1 Bft)
06.07.2024 08:00 21,3 °C 19,1 °C 60 % 78 % 1005,9 hPa 0,0 l/m² 8,2 km/h (2 Bft) O 1,00 h 306 W/m² 15,2 °C 18,2 °C 12,2 km/h (2 Bft)
06.07.2024 09:00 21,4 °C 23,1 °C 60 % 67 % 1005,1 hPa 0,0 l/m² 10,6 km/h (2 Bft) O-SO 0,98 h 553 W/m² 16,5 °C 21,9 °C 15,6 km/h (3 Bft)
06.07.2024 10:00 21,5 °C 26,5 °C 60 % 58 % 1004,0 hPa 0,0 l/m² 12,5 km/h (2 Bft) SO 1,02 h 754 W/m² 17,6 °C 25,5 °C 18,5 km/h (3 Bft)
06.07.2024 11:00 21,5 °C 29,5 °C 60 % 49 % 1003,0 hPa 0,0 l/m² 16,1 km/h (3 Bft) S-SO 1,00 h 803 W/m² 17,7 °C 28,8 °C 23,6 km/h (4 Bft)
06.07.2024 12:00 21,5 °C 31,2 °C 60 % 44 % 1002,1 hPa 0,0 l/m² 19,4 km/h (3 Bft) S-SO 1,00 h 895 W/m² 17,5 °C 30,7 °C 28,8 km/h (5 Bft)
06.07.2024 13:00 21,8 °C 31,3 °C 61 % 42 % 1001,9 hPa 0,0 l/m² 20,0 km/h (4 Bft) S-SW 1,00 h 590 W/m² 16,7 °C 30,8 °C 28,9 km/h (5 Bft)
06.07.2024 14:00 21,9 °C 31,1 °C 61 % 43 % 1001,5 hPa 0,0 l/m² 18,4 km/h (3 Bft) S-SW 1,00 h 480 W/m² 17,0 °C 30,7 °C 25,9 km/h (4 Bft)
06.07.2024 15:00 22,1 °C 30,6 °C 62 % 46 % 1001,3 hPa 0,0 l/m² 19,0 km/h (3 Bft) S-SW 1,00 h 398 W/m² 17,6 °C 29,9 °C 26,9 km/h (4 Bft)
06.07.2024 16:00 22,2 °C 25,0 °C 62 % 66 % 1002,8 hPa 0,4 l/m² 19,8 km/h (4 Bft) SW 1,00 h 134 W/m² 18,0 °C 23,3 °C 28,7 km/h (5 Bft)
06.07.2024 17:00 22,2 °C 21,3 °C 63 % 84 % 1002,6 hPa 0,0 l/m² 8,3 km/h (2 Bft) S-SO 1,00 h 198 W/m² 18,5 °C 20,5 °C 12,4 km/h (2 Bft)
06.07.2024 18:00 22,3 °C 21,9 °C 64 % 80 % 1002,6 hPa 0,0 l/m² 13,0 km/h (3 Bft) S 1,00 h 141 W/m² 18,2 °C 20,0 °C 19,9 km/h (4 Bft)
06.07.2024 19:00 22,5 °C 22,3 °C 65 % 74 % 1002,4 hPa 0,0 l/m² 15,1 km/h (3 Bft) S 0,73 h 73 W/m² 17,5 °C 20,1 °C 23,0 km/h (4 Bft)
06.07.2024 20:00 22,4 °C 21,9 °C 64 % 76 % 1002,9 hPa 0,0 l/m² 12,3 km/h (2 Bft) S 0,00 h 15 W/m² 17,4 °C 20,2 °C 18,3 km/h (3 Bft)
06.07.2024 21:00 22,6 °C 21,5 °C 64 % 74 % 1004,2 hPa 0,0 l/m² 10,6 km/h (2 Bft) SW 0,00 h 5 W/m² 16,7 °C 20,2 °C 16,2 km/h (3 Bft)
06.07.2024 22:00 22,7 °C 20,4 °C 64 % 68 % 1005,9 hPa 0,0 l/m² 9,8 km/h (2 Bft) W-SW 0,00 h 0 W/m² 14,3 °C 19,1 °C 16,0 km/h (3 Bft)
06.07.2024 23:00 22,6 °C 19,0 °C 64 % 64 % 1007,4 hPa 0,0 l/m² 7,6 km/h (2 Bft) W-SW 0,00 h 0 W/m² 11,9 °C 18,2 °C 12,8 km/h (3 Bft)
07.07.2024 00:00 22,3 °C 17,2 °C 64 % 70 % 1008,7 hPa 0,0 l/m² 6,8 km/h (2 Bft) W-SW 0,00 h 0 W/m² 11,5 °C 16,9 °C 9,7 km/h (2 Bft)
07.07.2024 01:00 22,2 °C 16,1 °C 64 % 73 % 1009,7 hPa 0,0 l/m² 5,6 km/h (2 Bft) SW 0,00 h 0 W/m² 11,3 °C 16,0 °C 7,9 km/h (2 Bft)
07.07.2024 02:00 22,2 °C 15,0 °C 64 % 77 % 1010,4 hPa 0,0 l/m² 8,0 km/h (2 Bft) SW 0,00 h 0 W/m² 11,1 °C 14,1 °C 11,1 km/h (2 Bft)
07.07.2024 03:00 22,1 °C 14,3 °C 63 % 79 % 1010,6 hPa 0,0 l/m² 6,0 km/h (2 Bft) SW 0,00 h 0 W/m² 10,7 °C 14,2 °C 8,9 km/h (2 Bft)
07.07.2024 04:00 22,2 °C 13,7 °C 63 % 81 % 1011,3 hPa 0,0 l/m² 2,8 km/h (1 Bft) W-SW 0,00 h 0 W/m² 10,5 °C 13,7 °C 4,6 km/h (1 Bft)
07.07.2024 05:00 22,2 °C 12,8 °C 63 % 82 % 1012,3 hPa 0,0 l/m² 2,0 km/h (1 Bft) W-SW 0,00 h 9 W/m² 9,8 °C 12,8 °C 3,7 km/h (1 Bft)
07.07.2024 06:00 22,2 °C 12,0 °C 63 % 84 % 1012,7 hPa 0,0 l/m² 2,1 km/h (1 Bft) SW 0,83 h 110 W/m² 9,5 °C 12,0 °C 4,1 km/h (1 Bft)
07.07.2024 07:00 22,1 °C 15,2 °C 63 % 74 % 1013,1 hPa 0,0 l/m² 7,8 km/h (2 Bft) S-SW 1,02 h 253 W/m² 10,5 °C 14,1 °C 11,2 km/h (2 Bft)
07.07.2024 08:00 22,1 °C 17,5 °C 63 % 61 % 1013,6 hPa 0,0 l/m² 13,7 km/h (3 Bft) SW 0,98 h 381 W/m² 10,0 °C 14,7 °C 20,0 km/h (4 Bft)
07.07.2024 09:00 22,2 °C 19,2 °C 63 % 55 % 1014,0 hPa 0,0 l/m² 12,8 km/h (3 Bft) SW 1,02 h 591 W/m² 9,8 °C 16,9 °C 19,0 km/h (3 Bft)
07.07.2024 10:00 22,3 °C 20,6 °C 60 % 49 % 1014,2 hPa 0,0 l/m² 12,7 km/h (3 Bft) S-SW 0,98 h 767 W/m² 9,5 °C 18,6 °C 18,8 km/h (3 Bft)
07.07.2024 11:00 22,3 °C 21,8 °C 56 % 43 % 1014,2 hPa 0,0 l/m² 14,2 km/h (3 Bft) SW 1,00 h 847 W/m² 8,5 °C 19,7 °C 21,4 km/h (4 Bft)
07.07.2024 12:00 22,5 °C 22,6 °C 55 % 40 % 1014,3 hPa 0,0 l/m² 14,6 km/h (3 Bft) S-SW 1,00 h 807 W/m² 8,2 °C 20,5 °C 21,8 km/h (4 Bft)
07.07.2024 13:00 22,7 °C 23,0 °C 57 % 39 % 1014,4 hPa 0,0 l/m² 13,7 km/h (3 Bft) SW 1,00 h 690 W/m² 8,4 °C 21,2 °C 20,5 km/h (4 Bft)
07.07.2024 14:00 22,7 °C 23,3 °C 57 % 39 % 1014,4 hPa 0,0 l/m² 13,1 km/h (3 Bft) SW 1,02 h 687 W/m² 8,4 °C 21,7 °C 19,7 km/h (3 Bft)
07.07.2024 15:00 22,7 °C 24,6 °C 55 % 35 % 1014,3 hPa 0,0 l/m² 15,2 km/h (3 Bft) S-SW 1,00 h 837 W/m² 8,2 °C 22,8 °C 22,0 km/h (4 Bft)
07.07.2024 16:00 22,8 °C 25,3 °C 57 % 34 % 1014,2 hPa 0,0 l/m² 12,1 km/h (2 Bft) SW 1,00 h 722 W/m² 8,1 °C 24,1 °C 18,0 km/h (3 Bft)
07.07.2024 17:00 22,7 °C 25,5 °C 57 % 34 % 1014,0 hPa 0,0 l/m² 10,5 km/h (2 Bft) SW 1,00 h 592 W/m² 8,5 °C 24,6 °C 15,7 km/h (3 Bft)
07.07.2024 18:00 22,6 °C 24,7 °C 57 % 36 % 1013,9 hPa 0,0 l/m² 10,0 km/h (2 Bft) W-SW 1,00 h 372 W/m² 8,7 °C 23,8 °C 16,1 km/h (3 Bft)
07.07.2024 19:00 22,6 °C 22,4 °C 56 % 42 % 1014,0 hPa 0,0 l/m² 3,6 km/h (1 Bft) W 1,00 h 71 W/m² 8,8 °C 22,3 °C 6,9 km/h (2 Bft)
07.07.2024 20:00 22,6 °C 20,6 °C 55 % 53 % 1014,3 hPa 0,0 l/m² 0,5 km/h (0 Bft) W 0,05 h 33 W/m² 10,5 °C 20,6 °C 1,5 km/h (1 Bft)
07.07.2024 21:00 22,7 °C 18,1 °C 57 % 68 % 1014,8 hPa 0,0 l/m² 0,0 km/h (0 Bft) W 0,00 h 7 W/m² 12,1 °C 18,1 °C 0,1 km/h (0 Bft)
07.07.2024 22:00 22,7 °C 15,6 °C 58 % 76 % 1015,5 hPa 0,0 l/m² 0,0 km/h (0 Bft) W 0,00 h 0 W/m² 11,4 °C 15,6 °C 0,0 km/h (0 Bft)
07.07.2024 23:00 22,5 °C 14,7 °C 58 % 83 % 1015,7 hPa 0,0 l/m² 0,3 km/h (0 Bft) W 0,00 h 0 W/m² 11,7 °C 14,7 °C 0,6 km/h (0 Bft)
Min-Datum _ 06.07.24 05.07.24 07.07.24 07.07.24 06.07.24 - 07.07.24 - - - 07.07.24 04.07.24 07.07.24
_ Min-Zeit 08:01 02:21 12:21 17:10 15:13 - 23:00 - - - 15:27 07:19 23:00
Minimum _ 21,3 °C 9,9 °C 52 % 32 % 1001,1 hPa - 0,0 km/h (0 Bft) - - - 7,2 °C 8,9 °C 0,0 km/h (0 Bft)
Max-Datum _ 01.07.24 06.07.24 06.07.24 01.07.24 07.07.24 04.07.24 06.07.24 - 05.07.24 06.07.24 06.07.24 06.07.24 06.07.24
_ Max-Zeit 01:08 13:56 21:07 09:40 23:59 15:17 16:14 - 08:10 13:49 17:21 13:56 16:11
Maximum _ 24,3 °C 32,1 °C 65 % 95 % 1015,9 hPa 3,8 l/m² 46,8 km/h
SW (6 Bft)
- 0,10 h 1192 W/m² 18,9 °C 31,8 °C 69,2 km/h
W-SW (8 Bft)
Durchschnitt _ 22,5 °C 17,2 °C 61 % 76 % 1010,1 hPa #12,0 l/m² 7,4 km/h (2 Bft) SW #91:27 h 183 W/m² 12,4 °C 16,2 °C 11,2 km/h (2 Bft)
© 2009 Mathias Hoßbach